Time;durP1;ratioP1;P1;durP2;ratioP2;P2;SDS_P1;SDS_P2;PMS_P1;PMS_P2;Temp;Humidity;BMP_temperature;BMP_pressure;BME280_temperature;BME280_humidity;BME280_pressure;Samples;Min_cycle;Max_cycle;Signal;HPM_P1;HPM_P2
2021/05/01 00:01:05;;;;;;;25.25;7.78;;;15.10;99.90;;;;;;5046474;28;20080;-77
2021/05/01 00:03:31;;;;;;;22.98;7.60;;;15.10;99.90;;;;;;5039741;28;20109;-77
2021/05/01 00:05:57;;;;;;;26.38;7.53;;;15.10;99.90;;;;;;5030758;28;20125;-78
2021/05/01 00:08:23;;;;;;;26.65;7.20;;;15.00;99.90;;;;;;5039815;28;20052;-77
2021/05/01 00:10:50;;;;;;;19.38;7.82;;;15.00;99.90;;;;;;5026592;28;20025;-78
2021/05/01 00:13:16;;;;;;;22.85;7.97;;;15.00;99.90;;;;;;5039207;28;20116;-77
2021/05/01 00:15:42;;;;;;;24.50;8.27;;;15.00;99.90;;;;;;5030619;28;20025;-77
2021/05/01 00:18:07;;;;;;;31.25;9.70;;;14.90;99.90;;;;;;5037513;28;20034;-77
2021/05/01 00:20:33;;;;;;;22.88;8.63;;;14.90;99.90;;;;;;5050018;28;20472;-77
2021/05/01 00:22:59;;;;;;;21.08;8.57;;;14.90;99.90;;;;;;5037235;28;20041;-78
2021/05/01 00:25:25;;;;;;;22.67;8.60;;;14.90;99.90;;;;;;5044965;28;20037;-77
2021/05/01 00:27:50;;;;;;;28.60;9.02;;;14.90;99.90;;;;;;5040043;28;20053;-77
2021/05/01 00:30:16;;;;;;;17.15;8.40;;;14.90;99.90;;;;;;5030202;28;20029;-77
2021/05/01 00:32:42;;;;;;;27.63;8.30;;;15.00;99.90;;;;;;5033923;28;20563;-78
2021/05/01 00:35:09;;;;;;;19.60;6.88;;;15.00;99.90;;;;;;5029797;28;20086;-78
2021/05/01 00:37:35;;;;;;;18.42;6.22;;;15.00;99.90;;;;;;5040287;28;20048;-77
2021/05/01 00:40:00;;;;;;;20.85;6.13;;;15.00;99.90;;;;;;5046534;28;20432;-78
2021/05/01 00:42:26;;;;;;;20.02;6.72;;;15.00;99.90;;;;;;5043309;28;20029;-77
2021/05/01 00:44:52;;;;;;;32.97;7.95;;;14.90;99.90;;;;;;5050767;28;20037;-77
2021/05/01 00:47:17;;;;;;;23.30;6.85;;;14.90;99.90;;;;;;5046973;28;20028;-76
2021/05/01 00:49:43;;;;;;;18.38;6.05;;;14.90;99.90;;;;;;5038113;28;20033;-77
2021/05/01 00:52:09;;;;;;;21.83;6.00;;;14.90;99.90;;;;;;5037537;28;20399;-77
2021/05/01 00:54:37;;;;;;;12.38;5.32;;;14.90;99.90;;;;;;5048121;28;20032;-77
2021/05/01 00:57:03;;;;;;;12.38;4.32;;;14.90;99.90;;;;;;5050069;28;20104;-77
2021/05/01 00:59:29;;;;;;;23.90;5.90;;;14.90;99.90;;;;;;5033274;28;20030;-77
2021/05/01 01:01:55;;;;;;;11.75;5.20;;;14.90;99.90;;;;;;5028052;28;20025;-77
2021/05/01 01:04:21;;;;;;;15.15;4.63;;;14.90;99.90;;;;;;5051131;28;20070;-78
2021/05/01 01:06:47;;;;;;;18.73;5.78;;;14.90;99.90;;;;;;5047893;28;20474;-77
2021/05/01 01:09:14;;;;;;;19.58;4.80;;;14.80;99.90;;;;;;5041846;28;20029;-77
2021/05/01 01:11:42;;;;;;;17.08;5.28;;;14.80;99.90;;;;;;5035029;28;20022;-77
2021/05/01 01:14:09;;;;;;;15.35;4.93;;;14.70;99.90;;;;;;5042221;28;20045;-77
2021/05/01 01:16:35;;;;;;;18.35;5.55;;;14.80;99.90;;;;;;5036050;28;20031;-78
2021/05/01 01:19:01;;;;;;;14.43;4.35;;;14.80;99.90;;;;;;5043058;28;20392;-77
2021/05/01 01:21:27;;;;;;;10.90;4.93;;;14.70;99.90;;;;;;5043747;28;20010;-77
2021/05/01 01:23:54;;;;;;;14.95;3.25;;;14.70;99.90;;;;;;5050682;28;20060;-78
2021/05/01 01:26:20;;;;;;;16.35;4.05;;;14.70;99.90;;;;;;5054245;28;20092;-78
2021/05/01 01:28:47;;;;;;;16.85;4.10;;;14.70;99.90;;;;;;5050329;28;20032;-77
2021/05/01 01:31:13;;;;;;;23.83;4.13;;;14.70;99.90;;;;;;5050411;28;20133;-77
2021/05/01 01:33:39;;;;;;;11.43;3.58;;;14.70;99.90;;;;;;5056386;28;20057;-78
2021/05/01 01:36:07;;;;;;;13.55;3.95;;;14.60;99.90;;;;;;5065254;28;20036;-79
2021/05/01 01:38:33;;;;;;;14.15;4.30;;;14.60;99.90;;;;;;5054922;28;20025;-79
2021/05/01 01:40:59;;;;;;;12.23;4.70;;;14.60;99.90;;;;;;5051553;28;20017;-78
2021/05/01 01:43:25;;;;;;;10.75;4.72;;;14.60;99.90;;;;;;5041995;28;20028;-78
2021/05/01 01:45:52;;;;;;;11.48;3.53;;;14.60;99.90;;;;;;5051635;28;20078;-77
2021/05/01 01:48:18;;;;;;;13.82;4.13;;;14.50;99.90;;;;;;5039905;28;20079;-78
2021/05/01 01:50:44;;;;;;;20.02;4.18;;;14.60;99.90;;;;;;5050701;28;20028;-77
2021/05/01 01:53:10;;;;;;;15.18;3.83;;;14.50;99.90;;;;;;5035585;28;20021;-78
2021/05/01 01:55:36;;;;;;;12.32;4.20;;;14.50;99.90;;;;;;5022094;28;20045;-78
2021/05/01 01:58:02;;;;;;;17.42;4.43;;;14.50;99.90;;;;;;5029944;28;20025;-78
2021/05/01 02:00:29;;;;;;;11.70;3.72;;;14.50;99.90;;;;;;5020837;28;20105;-78
2021/05/01 02:02:55;;;;;;;18.55;4.78;;;14.40;99.90;;;;;;5029585;28;20025;-78
2021/05/01 02:05:22;;;;;;;17.65;3.92;;;14.40;99.90;;;;;;5032122;28;20037;-77
2021/05/01 02:07:48;;;;;;;11.93;4.78;;;14.30;99.90;;;;;;5037752;28;20033;-78
2021/05/01 02:10:15;;;;;;;13.30;3.65;;;14.20;99.90;;;;;;5012811;28;20053;-78
2021/05/01 02:12:42;;;;;;;15.02;4.25;;;14.20;99.90;;;;;;5034197;28;20031;-79
2021/05/01 02:15:13;;;;;;;6.28;3.33;;;14.10;99.90;;;;;;5050165;28;20120;-78
2021/05/01 02:17:40;;;;;;;12.07;4.28;;;14.10;99.90;;;;;;5045667;28;20020;-79
2021/05/01 02:20:07;;;;;;;11.07;4.10;;;14.00;99.90;;;;;;5033091;28;20029;-78
2021/05/01 02:22:36;;;;;;;12.85;4.55;;;13.90;99.90;;;;;;5037474;28;20036;-78
2021/05/01 02:25:05;;;;;;;14.80;4.72;;;13.70;99.90;;;;;;5050393;28;20048;-78
2021/05/01 02:27:30;;;;;;;13.15;4.50;;;13.60;99.90;;;;;;5042031;28;20053;-78
2021/05/01 02:29:56;;;;;;;13.25;4.70;;;13.50;99.90;;;;;;5049668;28;20479;-78
2021/05/01 02:32:22;;;;;;;14.20;5.15;;;13.60;99.90;;;;;;5041686;28;20040;-78
2021/05/01 02:34:47;;;;;;;18.02;4.20;;;13.60;99.90;;;;;;5047031;28;20020;-78
2021/05/01 02:37:13;;;;;;;16.65;4.80;;;13.60;99.90;;;;;;5043182;28;20117;-78
2021/05/01 02:39:39;;;;;;;9.63;4.07;;;13.70;99.90;;;;;;5044708;28;20057;-78
2021/05/01 02:42:06;;;;;;;10.60;4.15;;;13.60;99.90;;;;;;5043047;28;20025;-79
2021/05/01 02:44:32;;;;;;;8.93;4.22;;;13.60;99.90;;;;;;5043844;28;20071;-77
2021/05/01 02:46:58;;;;;;;7.43;3.72;;;13.50;99.90;;;;;;5046837;28;20044;-77
2021/05/01 02:49:23;;;;;;;13.32;4.32;;;13.40;99.90;;;;;;5044777;28;20017;-77
2021/05/01 02:51:49;;;;;;;12.38;3.95;;;13.30;99.90;;;;;;5047601;28;20083;-76
2021/05/01 02:54:15;;;;;;;10.15;4.28;;;13.20;99.90;;;;;;5043809;28;20047;-77
2021/05/01 02:56:40;;;;;;;9.73;4.32;;;13.20;99.90;;;;;;5048003;28;20032;-76
2021/05/01 02:59:06;;;;;;;10.82;4.03;;;13.10;99.90;;;;;;5042844;28;20029;-77
2021/05/01 03:01:32;;;;;;;10.40;4.05;;;13.10;99.90;;;;;;5048327;28;20502;-77
2021/05/01 03:03:57;;;;;;;7.68;3.90;;;13.00;99.90;;;;;;5042191;28;20036;-77
2021/05/01 03:06:23;;;;;;;13.55;4.65;;;13.00;99.90;;;;;;5046943;28;20488;-77
2021/05/01 03:08:49;;;;;;;9.68;3.95;;;12.90;99.90;;;;;;5041469;28;20423;-77
2021/05/01 03:11:14;;;;;;;10.15;4.10;;;12.90;99.90;;;;;;5048086;28;20100;-78
2021/05/01 03:13:40;;;;;;;11.15;4.53;;;12.90;99.90;;;;;;5041290;28;20029;-78
2021/05/01 03:16:06;;;;;;;14.48;4.32;;;12.90;99.90;;;;;;5048752;28;20044;-77
2021/05/01 03:18:32;;;;;;;12.63;3.90;;;12.90;99.90;;;;;;5041521;28;20025;-78
2021/05/01 03:20:57;;;;;;;15.45;4.63;;;12.80;99.90;;;;;;5050035;28;20495;-77
2021/05/01 03:23:26;;;;;;;15.07;5.03;;;12.80;99.90;;;;;;5038882;28;20044;-76
2021/05/01 03:25:51;;;;;;;14.57;4.40;;;12.80;99.90;;;;;;5049731;28;20028;-78
2021/05/01 03:28:18;;;;;;;8.60;3.67;;;12.80;99.90;;;;;;5040089;28;20036;-78
2021/05/01 03:30:43;;;;;;;7.60;3.47;;;12.80;99.90;;;;;;5050583;28;20194;-78
2021/05/01 03:33:09;;;;;;;11.82;4.45;;;12.80;99.90;;;;;;5040685;28;20567;-77
2021/05/01 03:35:35;;;;;;;11.65;3.67;;;12.80;99.90;;;;;;5031020;28;20083;-77
2021/05/01 03:38:00;;;;;;;9.48;4.05;;;12.80;99.90;;;;;;5037989;28;20420;-77
2021/05/01 03:40:26;;;;;;;10.82;4.15;;;12.80;99.90;;;;;;5049841;28;20018;-77
2021/05/01 03:42:52;;;;;;;11.77;3.38;;;12.80;99.90;;;;;;5037317;28;20037;-78
2021/05/01 03:45:21;;;;;;;9.18;3.67;;;12.80;99.90;;;;;;5050923;28;20032;-78
2021/05/01 03:47:46;;;;;;;10.73;3.60;;;12.80;99.90;;;;;;5038909;28;20033;-77
2021/05/01 03:50:13;;;;;;;9.32;3.40;;;12.80;99.90;;;;;;5049373;28;20025;-78
2021/05/01 03:52:38;;;;;;;10.80;3.83;;;12.80;99.90;;;;;;5040131;28;20075;-77
2021/05/01 03:55:06;;;;;;;12.55;4.85;;;12.90;99.90;;;;;;5048077;28;20107;-78
2021/05/01 03:57:31;;;;;;;11.45;3.63;;;12.90;99.90;;;;;;5040875;28;20037;-78
2021/05/01 04:00:00;;;;;;;19.75;3.08;;;12.90;99.90;;;;;;5048611;28;20029;-79
2021/05/01 04:02:26;;;;;;;14.68;3.30;;;13.00;99.90;;;;;;5041708;28;20443;-79
2021/05/01 04:04:51;;;;;;;9.00;3.05;;;13.10;99.90;;;;;;5047888;28;20033;-79
2021/05/01 04:07:17;;;;;;;10.85;2.92;;;13.10;99.90;;;;;;5043146;28;20608;-79
2021/05/01 04:09:43;;;;;;;10.45;3.35;;;13.10;99.90;;;;;;5046650;28;20068;-78
2021/05/01 04:12:08;;;;;;;8.10;2.78;;;13.10;99.90;;;;;;5042606;28;20040;-79
2021/05/01 04:14:34;;;;;;;7.45;2.80;;;13.10;99.90;;;;;;5044446;28;20024;-78
2021/05/01 04:17:00;;;;;;;10.52;2.83;;;13.10;99.90;;;;;;5047628;28;20033;-78
2021/05/01 04:19:25;;;;;;;8.95;2.92;;;13.20;99.90;;;;;;5048029;28;20074;-79
2021/05/01 04:21:51;;;;;;;7.55;3.38;;;13.20;99.90;;;;;;5046759;28;20029;-79
2021/05/01 04:24:17;;;;;;;7.28;2.53;;;13.30;99.90;;;;;;5042279;28;20108;-79
2021/05/01 04:26:42;;;;;;;6.95;2.92;;;13.30;99.90;;;;;;5039617;28;20040;-79
2021/05/01 04:29:08;;;;;;;9.00;2.78;;;13.40;99.90;;;;;;5045970;28;20369;-79
2021/05/01 04:31:34;;;;;;;10.30;2.63;;;13.40;99.90;;;;;;5050984;28;20138;-78
2021/05/01 04:33:59;;;;;;;8.65;2.90;;;13.50;99.90;;;;;;5045519;28;20025;-80
2021/05/01 04:36:25;;;;;;;11.45;2.50;;;13.60;99.90;;;;;;5050456;28;20476;-79
2021/05/01 04:38:51;;;;;;;11.20;2.70;;;13.70;99.90;;;;;;5043170;28;20049;-79
2021/05/01 04:41:17;;;;;;;13.00;2.80;;;13.80;99.90;;;;;;5036013;28;20099;-79
2021/05/01 04:43:45;;;;;;;11.75;2.75;;;13.90;99.90;;;;;;5045364;28;20498;-78
2021/05/01 04:46:14;;;;;;;6.00;2.53;;;14.00;99.90;;;;;;5050938;28;20033;-78
2021/05/01 04:48:41;;;;;;;8.48;2.25;;;14.10;99.90;;;;;;5038868;28;20025;-78
2021/05/01 04:51:07;;;;;;;7.07;2.33;;;14.20;99.90;;;;;;5035236;28;20083;-77
2021/05/01 04:53:32;;;;;;;11.75;2.33;;;14.30;99.90;;;;;;5044545;28;20354;-78
2021/05/01 04:55:58;;;;;;;5.97;2.25;;;14.30;99.90;;;;;;5052382;28;20025;-80
2021/05/01 04:58:24;;;;;;;6.80;3.08;;;14.50;99.90;;;;;;5043247;28;20024;-77
2021/05/01 05:00:49;;;;;;;8.30;2.30;;;14.70;99.90;;;;;;5052647;28;20029;-81
2021/05/01 05:03:15;;;;;;;6.63;2.65;;;14.90;99.90;;;;;;5045064;28;20488;-77
2021/05/01 05:05:41;;;;;;;9.13;2.53;;;14.90;99.90;;;;;;5033554;28;20037;-78
2021/05/01 05:08:07;;;;;;;7.22;2.28;;;15.00;99.90;;;;;;5044169;28;20106;-78
2021/05/01 05:10:32;;;;;;;12.30;2.58;;;15.10;99.90;;;;;;5032891;28;20455;-79
2021/05/01 05:12:58;;;;;;;9.82;2.25;;;15.20;99.90;;;;;;5040664;28;20037;-79
2021/05/01 05:15:24;;;;;;;5.50;1.85;;;15.30;99.90;;;;;;5053780;28;20025;-78
2021/05/01 05:17:50;;;;;;;9.25;2.10;;;15.30;99.90;;;;;;5041742;28;20087;-77
2021/05/01 05:20:15;;;;;;;9.27;2.03;;;15.40;99.90;;;;;;5053936;28;20024;-79
2021/05/01 05:22:41;;;;;;;7.60;2.20;;;15.40;99.90;;;;;;5042391;28;20029;-78
2021/05/01 05:25:07;;;;;;;6.50;2.13;;;15.40;99.90;;;;;;5067684;28;20053;-78
2021/05/01 05:27:33;;;;;;;9.80;2.67;;;15.40;99.90;;;;;;5064421;28;20029;-79
2021/05/01 05:29:59;;;;;;;5.38;2.13;;;15.40;99.90;;;;;;5055310;28;20549;-78
2021/05/01 05:32:25;;;;;;;5.82;2.58;;;15.60;99.90;;;;;;5042726;28;20021;-79
2021/05/01 05:34:54;;;;;;;6.25;2.13;;;15.70;99.90;;;;;;5071633;28;20025;-79
2021/05/01 05:37:20;;;;;;;5.47;2.40;;;15.80;99.90;;;;;;5073931;28;20044;-79
2021/05/01 05:39:48;;;;;;;7.20;2.20;;;16.00;99.90;;;;;;5039632;28;20025;-80
2021/05/01 05:42:14;;;;;;;6.78;2.28;;;16.10;99.90;;;;;;5039816;28;20029;-79
2021/05/01 05:44:43;;;;;;;5.63;2.05;;;16.10;99.90;;;;;;5047457;28;20112;-78
2021/05/01 05:47:09;;;;;;;5.72;2.10;;;16.10;99.90;;;;;;5046164;28;20426;-78
2021/05/01 05:49:35;;;;;;;5.07;1.98;;;16.10;99.90;;;;;;5047567;28;20112;-79
2021/05/01 05:52:00;;;;;;;11.27;2.15;;;16.20;99.90;;;;;;5047458;28;20110;-79
2021/05/01 05:54:26;;;;;;;3.88;1.83;;;16.30;99.90;;;;;;5045245;28;20365;-77
2021/05/01 05:56:52;;;;;;;11.68;3.83;;;16.40;99.90;;;;;;5048317;28;20472;-79
2021/05/01 05:59:18;;;;;;;8.63;2.25;;;16.50;99.90;;;;;;5043844;28;20032;-80
2021/05/01 06:01:47;;;;;;;6.25;2.22;;;16.60;99.90;;;;;;5046315;28;20041;-80
2021/05/01 06:04:20;;;;;;;5.65;2.65;;;16.70;99.90;;;;;;5035905;28;20025;-81
2021/05/01 06:07:12;;;;;;;5.00;1.90;;;16.90;99.90;;;;;;5046965;28;20032;-80
2021/05/01 06:09:39;;;;;;;7.80;1.90;;;16.90;99.90;;;;;;5033548;28;20045;-76
2021/05/01 06:12:07;;;;;;;5.40;1.88;;;17.00;99.90;;;;;;5038048;28;20029;-79
2021/05/01 06:14:33;;;;;;;6.70;2.42;;;17.10;99.90;;;;;;5046857;28;20057;-78
2021/05/01 06:17:00;;;;;;;8.95;2.53;;;17.20;99.90;;;;;;5047073;28;20062;-79
2021/05/01 06:19:26;;;;;;;;;;;17.40;99.90;;;;;;5045045;28;20024;-78
2021/05/01 06:21:52;;;;;;;10.82;2.45;;;17.70;99.90;;;;;;5048940;28;20360;-81
2021/05/01 06:24:18;;;;;;;7.88;2.10;;;17.90;99.90;;;;;;5040112;28;20045;-79
2021/05/01 06:26:44;;;;;;;7.97;2.33;;;18.10;99.90;;;;;;5037465;28;20032;-77
2021/05/01 06:29:11;;;;;;;5.25;2.13;;;18.20;99.90;;;;;;5034898;28;20017;-78
2021/05/01 06:31:37;;;;;;;4.83;1.80;;;18.30;99.90;;;;;;5047550;28;20365;-77
2021/05/01 06:34:05;;;;;;;7.70;2.38;;;18.50;99.90;;;;;;5031717;28;20025;-78
2021/05/01 06:36:32;;;;;;;10.43;2.55;;;18.60;99.90;;;;;;5035517;28;20021;-78
2021/05/01 06:39:05;;;;;;;5.32;2.42;;;18.80;99.90;;;;;;5041927;28;20028;-78
2021/05/01 06:42:11;;;;;;;15.18;3.05;;;19.00;99.90;;;;;;5035455;28;20033;-80
2021/05/01 06:44:48;;;;;;;5.03;2.13;;;19.30;99.90;;;;;;5040493;28;20033;-78
2021/05/01 06:47:17;;;;;;;8.20;2.80;;;19.50;99.90;;;;;;5044870;28;20025;-78
2021/05/01 06:49:57;;;;;;;14.68;2.20;;;19.60;99.90;;;;;;5047625;28;20013;-78
2021/05/01 06:52:23;;;;;;;9.73;2.20;;;19.70;99.90;;;;;;5045839;28;20056;-77
2021/05/01 06:54:51;;;;;;;4.13;1.98;;;19.70;99.90;;;;;;5051775;28;20033;-77
2021/05/01 06:57:23;;;;;;;6.32;2.28;;;19.80;99.90;;;;;;5043536;28;20029;-76
2021/05/01 06:59:53;;;;;;;4.72;1.85;;;19.90;99.90;;;;;;5048514;28;20024;-78
2021/05/01 07:02:33;;;;;;;5.43;2.00;;;20.00;99.90;;;;;;5042142;28;20072;-78
2021/05/01 07:04:59;;;;;;;9.40;2.28;;;20.00;99.90;;;;;;5049318;28;20028;-78
2021/05/01 07:07:27;;;;;;;7.05;2.13;;;19.90;99.90;;;;;;5045536;28;20067;-81
2021/05/01 07:09:54;;;;;;;13.75;2.72;;;19.90;99.90;;;;;;5034306;28;20361;-78
2021/05/01 07:12:21;;;;;;;6.03;1.50;;;19.90;99.90;;;;;;5036687;28;20057;-78
2021/05/01 07:14:48;;;;;;;12.95;2.25;;;20.00;99.90;;;;;;5046513;28;20641;-77
2021/05/01 07:17:14;;;;;;;5.80;2.10;;;19.90;99.90;;;;;;5044908;28;20035;-76
2021/05/01 07:19:41;;;;;;;13.35;2.90;;;19.90;99.90;;;;;;5051377;28;20025;-76
2021/05/01 07:22:07;;;;;;;;;;;19.90;99.90;;;;;;5043855;28;20025;-76
2021/05/01 07:24:36;;;;;;;9.60;3.42;;;19.80;99.90;;;;;;5036436;28;20290;-77
2021/05/01 07:27:03;;;;;;;7.32;3.03;;;19.70;99.90;;;;;;5036612;28;20028;-77
2021/05/01 07:29:41;;;;;;;9.48;3.67;;;19.60;99.90;;;;;;5045145;28;20357;-77
2021/05/01 07:32:09;;;;;;;10.02;3.67;;;19.60;99.90;;;;;;5041269;28;20038;-75
2021/05/01 07:34:36;;;;;;;11.63;2.70;;;19.60;99.90;;;;;;5045539;28;20021;-76
2021/05/01 07:37:17;;;;;;;9.93;2.83;;;19.70;99.90;;;;;;5044693;28;20037;-76
2021/05/01 07:39:43;;;;;;;13.93;2.67;;;19.70;99.90;;;;;;5035523;28;20029;-77
2021/05/01 07:42:10;;;;;;;8.13;2.63;;;19.80;99.90;;;;;;5036358;28;20049;-77
2021/05/01 07:44:38;;;;;;;9.52;1.98;;;19.80;99.90;;;;;;5045707;28;20033;-76
2021/05/01 07:47:05;;;;;;;5.45;2.63;;;20.00;99.90;;;;;;5044693;28;20107;-78
2021/05/01 07:49:30;;;;;;;11.88;3.08;;;20.10;99.90;;;;;;5044914;28;20032;-76
2021/05/01 07:51:56;;;;;;;8.60;3.30;;;20.00;99.90;;;;;;5045742;28;20036;-77
2021/05/01 07:54:22;;;;;;;9.82;3.58;;;20.00;99.90;;;;;;5043546;28;20025;-76
2021/05/01 07:56:48;;;;;;;11.55;3.53;;;19.90;99.90;;;;;;5046758;28;20039;-75
2021/05/01 07:59:14;;;;;;;13.93;4.53;;;19.90;99.90;;;;;;5042607;28;20470;-76
2021/05/01 08:01:43;;;;;;;11.05;3.35;;;19.90;99.90;;;;;;5044774;28;20036;-77
2021/05/01 08:04:10;;;;;;;13.02;3.97;;;20.10;99.90;;;;;;5050281;28;20025;-79
2021/05/01 08:06:36;;;;;;;;;;;20.00;99.90;;;;;;5046392;28;20025;-76
2021/05/01 08:09:02;;;;;;;8.73;3.83;;;20.10;99.90;;;;;;5041925;28;20534;-77
2021/05/01 08:11:28;;;;;;;10.15;3.08;;;20.20;99.90;;;;;;5046943;28;20072;-76
2021/05/01 08:13:54;;;;;;;11.10;3.65;;;20.10;99.90;;;;;;5041728;28;20044;-77
2021/05/01 08:16:19;;;;;;;9.27;3.03;;;20.00;99.90;;;;;;5046356;28;20029;-76
2021/05/01 08:18:45;;;;;;;12.60;4.07;;;20.10;99.90;;;;;;5039487;28;20025;-76
2021/05/01 08:21:11;;;;;;;10.82;4.60;;;20.30;99.90;;;;;;5031727;28;20040;-77
2021/05/01 08:23:37;;;;;;;17.52;5.78;;;20.40;99.90;;;;;;5041432;28;20070;-77
2021/05/01 08:26:05;;;;;;;10.48;4.72;;;20.50;99.90;;;;;;5048134;28;20047;-78
2021/05/01 08:28:31;;;;;;;14.25;5.60;;;20.60;99.90;;;;;;5040206;28;20060;-76
2021/05/01 08:30:58;;;;;;;12.10;5.00;;;20.50;99.90;;;;;;5031458;28;20026;-77
2021/05/01 08:33:23;;;;;;;7.40;4.17;;;20.60;99.90;;;;;;5039665;28;20393;-77
2021/05/01 08:35:49;;;;;;;8.00;4.50;;;20.70;99.90;;;;;;5049215;28;20310;-77
2021/05/01 08:38:15;;;;;;;10.90;3.97;;;20.80;99.90;;;;;;5038926;28;20037;-77
2021/05/01 08:40:40;;;;;;;13.25;4.05;;;20.80;99.90;;;;;;5050605;28;20025;-75
2021/05/01 08:43:06;;;;;;;16.00;3.20;;;21.00;99.90;;;;;;5038447;28;20309;-76
2021/05/01 08:45:32;;;;;;;21.17;4.15;;;21.10;99.90;;;;;;5050422;28;20491;-76
2021/05/01 08:48:00;;;;;;;17.38;4.43;;;21.20;99.90;;;;;;5042025;28;20040;-76
2021/05/01 08:50:26;;;;;;;9.50;3.55;;;21.10;99.90;;;;;;5030423;28;20022;-76
2021/05/01 08:52:55;;;;;;;12.88;3.28;;;21.00;99.90;;;;;;5036106;28;20048;-76
2021/05/01 08:55:23;;;;;;;10.18;2.92;;;20.70;99.90;;;;;;5050480;28;20029;-78
2021/05/01 08:57:48;;;;;;;;;;;20.60;99.90;;;;;;5038659;28;20021;-78
2021/05/01 09:00:14;;;;;;;13.77;3.38;;;20.40;99.90;;;;;;5010870;28;20424;-76
2021/05/01 09:02:41;;;;;;;10.67;3.83;;;20.30;99.90;;;;;;5033836;28;20039;-76
2021/05/01 09:05:11;;;;;;;8.55;2.92;;;20.40;99.90;;;;;;5052907;28;20512;-77
2021/05/01 09:07:39;;;;;;;8.02;2.85;;;20.60;99.90;;;;;;5043769;28;20040;-77
2021/05/01 09:10:06;;;;;;;8.50;2.92;;;20.70;99.90;;;;;;5053285;28;20552;-77
2021/05/01 09:12:45;;;;;;;10.88;3.63;;;20.90;99.90;;;;;;5043753;28;20033;-76
2021/05/01 09:15:25;;;;;;;11.50;3.47;;;20.80;99.90;;;;;;5053404;28;20392;-77
2021/05/01 09:18:00;;;;;;;25.17;11.60;;;20.50;99.90;;;;;;5041634;28;20396;-77
2021/05/01 09:20:26;;;;;;;6.80;3.75;;;20.30;99.90;;;;;;5053822;28;20025;-77
2021/05/01 09:22:58;;;;;;;10.27;4.03;;;20.30;99.90;;;;;;5041323;28;20029;-76
2021/05/01 09:25:27;;;;;;;12.15;2.53;;;20.20;99.90;;;;;;5053672;28;20075;-77
2021/05/01 09:28:06;;;;;;;10.75;2.75;;;20.10;99.90;;;;;;5041655;28;20052;-76
2021/05/01 09:30:34;;;;;;;9.32;2.55;;;20.20;99.90;;;;;;5056244;28;20029;-77
2021/05/01 09:33:27;;;;;;;6.50;1.73;;;20.10;99.90;;;;;;5048411;28;20108;-77
2021/05/01 09:36:01;;;;;;;5.75;1.88;;;20.20;99.90;;;;;;5053665;28;20487;-78
2021/05/01 09:38:40;;;;;;;7.05;2.53;;;20.10;99.90;;;;;;5040679;28;20489;-78
2021/05/01 09:41:09;;;;;;;5.30;2.25;;;20.20;99.90;;;;;;5052593;28;20052;-76
2021/05/01 09:43:34;;;;;;;26.27;16.33;;;20.40;99.90;;;;;;5045961;28;20044;-75
2021/05/01 09:46:13;;;;;;;25.10;16.60;;;20.60;99.90;;;;;;5035115;28;20037;-77
2021/05/01 09:48:39;;;;;;;8.63;4.10;;;20.80;99.90;;;;;;5037739;28;20567;-76
2021/05/01 09:51:05;;;;;;;29.98;17.25;;;20.80;99.90;;;;;;5034227;28;20383;-76
2021/05/01 09:53:31;;;;;;;8.15;2.60;;;21.10;99.90;;;;;;5043093;28;20091;-77
2021/05/01 09:55:58;;;;;;;14.38;2.95;;;21.10;99.90;;;;;;5050798;28;20094;-77
2021/05/01 09:58:29;;;;;;;8.25;2.38;;;21.10;99.90;;;;;;5042187;28;20071;-77
2021/05/01 10:01:15;;;;;;;4.05;2.15;;;21.10;99.90;;;;;;5035719;28;20109;-76
2021/05/01 10:03:41;;;;;;;65.40;34.05;;;21.10;99.90;;;;;;5044367;28;20029;-76
2021/05/01 10:06:10;;;;;;;9.43;3.55;;;21.30;99.90;;;;;;5049709;28;20124;-77
2021/05/01 10:08:36;;;;;;;11.02;3.97;;;21.60;99.90;;;;;;5043539;28;20029;-75
2021/05/01 10:11:12;;;;;;;15.20;7.28;;;21.30;99.90;;;;;;5050808;28;20056;-76
2021/05/01 10:13:53;;;;;;;12.77;2.70;;;21.50;99.90;;;;;;5036151;28;20420;-77
2021/05/01 10:16:20;;;;;;;10.48;3.00;;;21.60;99.90;;;;;;5034228;28;20065;-76
2021/05/01 10:19:12;;;;;;;8.93;3.33;;;21.20;99.90;;;;;;5043672;28;20448;-76
2021/05/01 10:21:41;;;;;;;13.13;3.58;;;21.00;99.90;;;;;;5048158;28;20040;-76
2021/05/01 10:24:08;;;;;;;25.08;14.57;;;20.90;99.90;;;;;;5032543;28;20063;-77
2021/05/01 10:26:40;;;;;;;;;;;21.00;99.90;;;;;;5036484;28;20111;-77
2021/05/01 10:29:21;;;;;;;9.48;3.75;;;21.40;99.90;;;;;;5043546;28;19908;-77
2021/05/01 10:31:53;;;;;;;13.65;6.00;;;21.80;99.90;;;;;;5048241;28;20032;-77
2021/05/01 10:34:22;;;;;;;13.18;4.45;;;21.80;99.90;;;;;;5043049;28;20032;-77
2021/05/01 10:36:50;;;;;;;14.45;4.18;;;21.90;99.90;;;;;;5048225;28;20521;-76
2021/05/01 10:39:16;;;;;;;6.90;3.63;;;21.90;99.90;;;;;;5043875;28;20621;-76
2021/05/01 10:41:54;;;;;;;31.20;16.30;;;21.90;99.90;;;;;;5048618;28;20037;-76
2021/05/01 10:44:20;;;;;;;22.20;8.02;;;22.30;99.90;;;;;;5036878;28;20036;-77
2021/05/01 10:46:46;;;;;;;33.35;15.30;;;22.30;99.90;;;;;;5048050;28;20379;-78
2021/05/01 10:49:11;;;;;;;17.27;8.57;;;22.30;99.90;;;;;;5043119;28;20013;-75
2021/05/01 10:51:44;;;;;;;6.32;2.42;;;22.20;99.90;;;;;;5046457;28;20067;-77
2021/05/01 10:54:12;;;;;;;11.05;4.53;;;21.50;99.90;;;;;;5040585;28;20124;-76
2021/05/01 10:56:59;;;;;;;7.60;3.47;;;21.40;99.90;;;;;;5033932;28;20539;-76
2021/05/01 10:59:27;;;;;;;33.10;17.65;;;21.40;99.90;;;;;;5037739;28;20037;-77
2021/05/01 11:01:55;;;;;;;23.27;13.35;;;21.10;99.90;;;;;;5044815;28;20687;-77
2021/05/01 11:04:20;;;;;;;18.45;7.07;;;21.20;99.90;;;;;;5038546;28;20188;-76
2021/05/01 11:06:48;;;;;;;14.57;6.88;;;21.10;99.90;;;;;;5037189;28;20505;-77
2021/05/01 11:09:36;;;;;;;22.50;12.57;;;21.20;99.90;;;;;;5043428;28;20025;-77
2021/05/01 11:12:04;;;;;;;12.35;4.07;;;21.20;99.90;;;;;;5045399;28;20021;-76
2021/05/01 11:14:31;;;;;;;8.55;3.05;;;21.20;99.90;;;;;;5045104;28;20381;-76
2021/05/01 11:17:22;;;;;;;14.32;3.92;;;21.00;99.90;;;;;;5046090;28;20108;-76
2021/05/01 11:19:51;;;;;;;17.23;8.15;;;21.10;99.90;;;;;;5047508;28;20032;-76
2021/05/01 11:22:20;;;;;;;9.35;3.00;;;21.20;99.90;;;;;;5043445;28;20033;-76
2021/05/01 11:24:47;;;;;;;13.02;5.05;;;21.00;99.90;;;;;;5045502;28;20678;-75
2021/05/01 11:27:13;;;;;;;13.65;6.65;;;20.90;99.90;;;;;;5043591;28;20029;-76
2021/05/01 11:29:40;;;;;;;13.70;4.67;;;21.20;99.90;;;;;;5046307;28;20522;-76
2021/05/01 11:32:07;;;;;;;16.58;6.53;;;21.30;99.90;;;;;;5044775;28;20280;-77
2021/05/01 11:34:33;;;;;;;;;;;21.10;99.90;;;;;;5045388;28;20040;-76
2021/05/01 11:37:03;;;;;;;18.65;9.10;;;21.20;99.90;;;;;;5043182;28;19909;-75
2021/05/01 11:39:29;;;;;;;11.38;3.92;;;21.30;99.90;;;;;;5035963;28;20049;-75
2021/05/01 11:41:56;;;;;;;12.00;7.27;;;21.60;99.90;;;;;;5034560;28;20455;-77
2021/05/01 11:44:24;;;;;;;10.52;5.50;;;21.60;99.90;;;;;;5038023;28;20554;-76
2021/05/01 11:46:59;;;;;;;9.88;5.28;;;21.40;99.90;;;;;;5036010;28;20029;-78
2021/05/01 11:49:27;;;;;;;9.82;4.20;;;21.40;99.90;;;;;;5042520;28;20025;-76
2021/05/01 11:52:08;;;;;;;8.13;4.03;;;21.00;99.90;;;;;;5047272;28;20483;-75
2021/05/01 11:54:48;;;;;;;52.65;34.05;;;20.80;99.90;;;;;;5036444;28;20121;-76
2021/05/01 11:57:33;;;;;;;20.05;11.23;;;20.80;99.90;;;;;;5037128;28;20314;-76
2021/05/01 12:00:00;;;;;;;18.23;6.88;;;21.20;99.90;;;;;;5031900;28;20029;-76
2021/05/01 12:02:44;;;;;;;11.57;2.72;;;21.30;99.90;;;;;;5034753;28;20083;-75
2021/05/01 12:05:21;;;;;;;9.98;2.25;;;21.50;99.90;;;;;;5050050;28;20253;-74
2021/05/01 12:07:54;;;;;;;;;;;22.00;99.90;;;;;;5044910;28;20036;-76
2021/05/01 12:10:23;;;;;;;6.22;2.63;;;22.60;99.90;;;;;;5011233;28;19905;-76
2021/05/01 12:13:04;;;;;;;14.00;2.75;;;23.00;99.90;;;;;;5033697;28;20060;-76
2021/05/01 12:15:35;;;;;;;13.00;3.75;;;23.40;99.90;;;;;;5050698;28;20018;-76
2021/05/01 12:18:02;;;;;;;16.25;3.65;;;24.00;99.70;;;;;;5038500;28;20116;-76
2021/05/01 12:20:29;;;;;;;17.08;4.97;;;24.40;97.10;;;;;;5050748;28;20025;-76
2021/05/01 12:23:08;;;;;;;15.40;4.97;;;24.70;97.20;;;;;;5038148;28;20036;-77
2021/05/01 12:25:49;;;;;;;10.90;3.70;;;24.70;97.00;;;;;;5050347;28;20037;-76
2021/05/01 12:28:32;;;;;;;8.30;2.40;;;24.80;93.60;;;;;;5040563;28;20034;-77
2021/05/01 12:30:58;;;;;;;9.25;3.35;;;24.00;93.80;;;;;;5031690;28;20561;-77
2021/05/01 12:33:27;;;;;;;12.77;4.53;;;24.60;94.50;;;;;;5039793;28;20021;-77
2021/05/01 12:35:55;;;;;;;10.80;2.63;;;25.60;94.70;;;;;;5048812;28;20025;-76
2021/05/01 12:38:23;;;;;;;18.00;3.03;;;26.10;90.00;;;;;;5041796;28;20021;-76
2021/05/01 12:40:50;;;;;;;13.85;3.45;;;26.30;90.00;;;;;;5052981;28;20116;-76
2021/05/01 12:43:35;;;;;;;;;;;26.60;86.50;;;;;;5043202;28;20394;-77
2021/05/01 12:46:30;;;;;;;11.90;3.00;;;26.70;85.20;;;;;;5052701;28;19921;-76
2021/05/01 12:48:56;;;;;;;15.50;2.72;;;27.80;79.30;;;;;;5041295;28;20152;-77